KAGS/AGS METAR and TAF weather

Enter ICAO airport designator
Station Type Date Time Source
KAGS METAR 2018/12/10 16:53 UTC NOAA

KAGS 101653Z 02008KT 10SM OVC017 06/03 A3009 RMK AO2 SLP189 T00610033


Station Type Date Time Source
KAGS Decoded METAR 2018/12/10 16:53 UTC NOAA

AUGUSTA BUSH FIELD, GA, United States (KAGS) 33-22N 081-58W 44M
Dec 10, 2018 - 11:53 AM EST / 2018.12.10 1653 UTC
Wind: from the NNE (020 degrees) at 9 MPH (8 KT):0
Visibility: 10 mile(s):0
Sky conditions: overcast
Temperature: 43.0 F (6.1 C)
Dew Point: 37.9 F (3.3 C)
Relative Humidity: 82%
Pressure (altimeter): 30.09 in. Hg (1018 hPa)
ob: KAGS 101653Z 02008KT 10SM OVC017 06/03 A3009 RMK AO2 SLP189 T00610033
cycle: 17

Station Type Date Time Source
KAGS TAF 2018/12/10 15:03 UTC NOAA

TAF
AMD KAGS 101500Z 1015/1112 03010KT P6SM OVC013
FM110200 35006KT P6SM SCT010 BKN018
FM110800 32004KT P6SM SCT007 BKN120


Example: see airport list